Time;durP1;ratioP1;P1;durP2;ratioP2;P2;SDS_P1;SDS_P2;PMS_P1;PMS_P2;Temp;Humidity;BMP_temperature;BMP_pressure;BME280_temperature;BME280_humidity;BME280_pressure;Samples;Min_cycle;Max_cycle;Signal;HPM_P1;HPM_P2
2023/03/02 00:04:31;;;;;;;116.80;58.00;;;;;;;-2.84;75.29;100763.13;217625;1257;139726;-62
2023/03/02 00:09:34;;;;;;;110.20;50.90;;;;;;;-2.81;75.50;100764.27;218297;1257;141846;-62
2023/03/02 00:14:39;;;;;;;122.90;58.10;;;;;;;-2.83;75.61;100765.42;217650;1257;139560;-62
2023/03/02 00:19:43;;;;;;;120.50;54.20;;;;;;;-2.83;75.76;100763.72;217697;1257;142358;-61
2023/03/02 00:24:47;;;;;;;117.70;54.30;;;;;;;-2.87;75.45;100764.17;218006;1260;140986;-62
2023/03/02 00:29:50;;;;;;;119.20;54.60;;;;;;;-2.86;75.60;100759.96;217983;1257;139846;-63
2023/03/02 00:34:53;;;;;;;115.10;57.20;;;;;;;-2.83;75.94;100753.23;218720;1257;205548;-61
2023/03/02 00:39:56;;;;;;;116.10;52.80;;;;;;;-2.83;75.93;100756.39;219199;1257;141686;-62
2023/03/02 00:45:00;;;;;;;104.20;49.80;;;;;;;-2.85;75.73;100749.81;220327;1257;141045;-63
2023/03/02 00:50:04;;;;;;;114.00;48.40;;;;;;;-2.86;75.44;100752.31;220488;1260;140596;-61
2023/03/02 00:55:08;;;;;;;107.80;52.60;;;;;;;-2.90;75.45;100748.98;220415;1257;140322;-63
2023/03/02 01:00:11;;;;;;;111.60;54.00;;;;;;;-2.93;75.67;100747.61;220414;1256;141475;-65
2023/03/02 01:05:15;;;;;;;99.60;55.30;;;;;;;-2.93;75.96;100740.98;220141;1258;140817;-64
2023/03/02 01:10:19;;;;;;;103.50;48.90;;;;;;;-2.88;75.76;100737.52;219653;1260;139352;-63
2023/03/02 01:15:21;;;;;;;100.90;47.80;;;;;;;-2.85;75.59;100730.98;217726;1257;140044;-62
2023/03/02 01:20:26;;;;;;;116.20;56.40;;;;;;;-2.89;75.52;100729.41;218845;1258;141867;-64
2023/03/02 01:25:31;;;;;;;112.70;60.70;;;;;;;-2.90;75.85;100723.23;218842;1256;140570;-64
2023/03/02 01:30:34;;;;;;;106.70;60.20;;;;;;;-2.93;75.87;100717.02;217933;1260;141232;-64
2023/03/02 01:35:37;;;;;;;113.50;53.90;;;;;;;-2.99;75.98;100706.36;217950;1261;140681;-65
2023/03/02 01:40:40;;;;;;;156.80;62.50;;;;;;;-3.10;75.96;100704.98;217856;1258;141679;-62
2023/03/02 01:45:50;;;;;;;106.40;53.00;;;;;;;-3.16;76.30;100703.93;218148;1260;139705;-64
2023/03/02 01:50:55;;;;;;;110.10;46.40;;;;;;;-3.15;76.43;100697.63;217721;1260;140186;-63
2023/03/02 01:55:59;;;;;;;119.70;56.50;;;;;;;-3.18;76.08;100682.39;217684;1260;140351;-63
2023/03/02 02:01:04;;;;;;;98.70;50.30;;;;;;;-3.20;76.40;100669.97;218049;1256;139923;-61
2023/03/02 02:06:30;;;;;;;97.50;50.90;;;;;;;-3.23;76.44;100667.96;218245;1258;139627;-62
2023/03/02 02:11:34;;;;;;;102.70;50.40;;;;;;;-3.32;76.44;100659.52;218010;1258;140259;-62
2023/03/02 02:16:38;;;;;;;99.60;48.70;;;;;;;-3.39;76.34;100668.59;219246;1257;139866;-62
2023/03/02 02:21:42;;;;;;;90.70;47.00;;;;;;;-3.30;76.74;100670.27;218264;1257;139870;-62
2023/03/02 02:26:50;;;;;;;99.00;50.50;;;;;;;-3.28;76.39;100661.10;218309;1257;139694;-64
2023/03/02 02:32:05;;;;;;;108.70;53.60;;;;;;;-3.37;76.28;100653.81;218912;1258;140466;-63
2023/03/02 02:37:15;;;;;;;103.00;51.90;;;;;;;-3.46;76.41;100646.07;220192;1257;141334;-63
2023/03/02 02:42:26;;;;;;;98.00;50.20;;;;;;;-3.53;76.49;100645.04;220317;1257;140478;-64
2023/03/02 02:47:29;;;;;;;98.00;51.60;;;;;;;-3.58;76.59;100643.34;220460;1257;139852;-64
2023/03/02 02:52:33;;;;;;;125.10;55.40;;;;;;;-3.57;76.86;100643.48;220459;1257;140893;-63
2023/03/02 02:57:37;;;;;;;122.70;53.50;;;;;;;-3.52;76.67;100641.48;220118;1257;140567;-62
2023/03/02 03:02:45;;;;;;;107.70;55.10;;;;;;;-3.45;76.58;100640.57;219479;1257;140563;-63
2023/03/02 03:07:48;;;;;;;103.40;52.10;;;;;;;-3.44;76.63;100638.39;220223;1257;140509;-61
2023/03/02 03:12:53;;;;;;;90.20;46.90;;;;;;;-3.47;76.52;100639.20;218211;1257;139575;-61
2023/03/02 03:17:57;;;;;;;104.00;48.80;;;;;;;-3.59;76.58;100635.61;218756;1257;139698;-63
2023/03/02 03:22:59;;;;;;;85.30;41.10;;;;;;;-3.69;76.78;100634.31;218922;1258;140568;-61
2023/03/02 03:28:02;;;;;;;102.20;53.80;;;;;;;-3.78;76.85;100636.40;217773;1258;139967;-62
2023/03/02 03:33:09;;;;;;;103.80;53.10;;;;;;;-3.77;76.77;100634.81;218577;1256;141390;-63
2023/03/02 03:38:15;;;;;;;98.70;52.80;;;;;;;-3.75;76.93;100640.18;217680;1257;140008;-61
2023/03/02 03:43:19;;;;;;;100.50;53.70;;;;;;;-3.74;77.10;100636.96;217543;1257;140524;-60
2023/03/02 03:48:22;;;;;;;108.70;52.70;;;;;;;-3.74;77.26;100637.84;218307;1257;139591;-62
2023/03/02 03:53:26;;;;;;;99.40;50.80;;;;;;;-3.81;77.17;100641.33;217694;1257;139458;-62
2023/03/02 03:58:30;;;;;;;98.80;48.40;;;;;;;-3.89;77.22;100642.87;218307;1257;139701;-62
2023/03/02 04:03:34;;;;;;;100.30;48.70;;;;;;;-3.90;77.23;100642.25;217589;1260;140484;-59
2023/03/02 04:08:37;;;;;;;101.00;51.80;;;;;;;-3.91;77.21;100640.77;217896;1260;140961;-62
2023/03/02 04:13:41;;;;;;;104.90;55.80;;;;;;;-3.93;77.33;100640.02;218460;1258;140092;-61
2023/03/02 04:18:44;;;;;;;103.60;49.20;;;;;;;-3.96;77.13;100634.23;217806;1260;1018925;-61
2023/03/02 04:23:47;;;;;;;98.60;50.90;;;;;;;-4.00;77.72;100629.02;219289;1256;140892;-61
2023/03/02 04:28:54;;;;;;;100.80;52.30;;;;;;;-4.03;77.58;100633.05;217985;1257;139970;-61
2023/03/02 04:33:57;;;;;;;93.80;46.10;;;;;;;-3.96;77.47;100633.19;219569;1257;140878;-61
2023/03/02 04:39:00;;;;;;;96.30;50.90;;;;;;;-3.89;77.51;100633.29;219835;1256;141071;-61
2023/03/02 04:44:03;;;;;;;99.00;54.30;;;;;;;-3.89;77.58;100635.52;219698;1257;139833;-60
2023/03/02 04:49:07;;;;;;;109.80;52.50;;;;;;;-3.92;77.45;100639.93;219461;1256;140777;-62
2023/03/02 04:54:16;;;;;;;95.10;53.20;;;;;;;-3.97;77.32;100638.45;220173;1257;140238;-62
2023/03/02 04:59:24;;;;;;;93.20;47.80;;;;;;;-4.08;77.21;100633.44;220329;1256;142057;-60
2023/03/02 05:04:29;;;;;;;111.60;50.80;;;;;;;-4.15;77.04;100631.17;219955;1256;140432;-62
2023/03/02 05:09:33;;;;;;;93.10;49.00;;;;;;;-4.08;77.30;100635.48;218744;1257;141021;-63
2023/03/02 05:14:36;;;;;;;101.60;51.00;;;;;;;-3.98;77.42;100640.80;220130;1256;140879;-64
2023/03/02 05:19:39;;;;;;;97.60;53.60;;;;;;;-3.94;77.57;100646.91;219008;1257;140911;-62
2023/03/02 05:24:41;;;;;;;99.80;53.70;;;;;;;-3.94;77.69;100652.13;217523;1256;140878;-62
2023/03/02 05:29:44;;;;;;;95.80;46.30;;;;;;;-3.97;77.76;100655.49;218222;1256;140896;-62
2023/03/02 05:34:47;;;;;;;122.60;58.80;;;;;;;-3.94;78.15;100659.91;218843;1256;140967;-63
2023/03/02 05:39:49;;;;;;;137.10;63.00;;;;;;;-3.86;78.38;100660.34;218373;1256;139719;-63
2023/03/02 05:44:54;;;;;;;125.80;59.50;;;;;;;-3.70;78.51;100656.66;218116;1257;140025;-64
2023/03/02 05:49:58;;;;;;;111.70;57.70;;;;;;;-3.52;78.71;100663.87;217882;1259;140501;-62
2023/03/02 05:55:00;;;;;;;112.20;62.00;;;;;;;-3.41;78.70;100662.50;217555;1258;140355;-65
2023/03/02 06:00:05;;;;;;;118.40;66.70;;;;;;;-3.33;78.79;100662.20;218756;1256;140900;-63
2023/03/02 06:05:11;;;;;;;148.70;78.70;;;;;;;-3.25;78.96;100668.02;217563;1257;139655;-62
2023/03/02 06:10:14;;;;;;;154.40;82.60;;;;;;;-3.15;79.26;100675.86;218315;1259;140486;-61
2023/03/02 06:15:17;;;;;;;218.40;117.60;;;;;;;-2.99;79.13;100676.48;217897;1257;139954;-62
2023/03/02 06:20:19;;;;;;;147.50;79.70;;;;;;;-2.81;79.12;100681.91;218163;1257;140733;-63
2023/03/02 06:25:23;;;;;;;149.80;81.30;;;;;;;-2.64;79.34;100685.73;219628;1256;140252;-66
2023/03/02 06:30:30;;;;;;;124.80;64.80;;;;;;;-2.53;79.43;100685.20;218799;1257;140220;-62
2023/03/02 06:35:34;;;;;;;134.30;71.70;;;;;;;-2.46;79.10;100678.35;219035;1256;140936;-62
2023/03/02 06:40:38;;;;;;;134.80;76.00;;;;;;;-2.28;79.30;100684.62;220384;1256;141947;-65
2023/03/02 06:45:41;;;;;;;136.20;77.60;;;;;;;-2.07;79.26;100685.85;219351;1256;142238;-65
2023/03/02 06:50:44;;;;;;;128.20;67.50;;;;;;;-1.90;79.47;100692.04;219327;1256;140391;-63
2023/03/02 06:55:48;;;;;;;129.10;61.20;;;;;;;-1.78;79.63;100702.48;220365;1256;140319;-65
2023/03/02 07:00:51;;;;;;;115.70;61.40;;;;;;;-1.67;79.71;100704.86;220360;1256;140512;-65
2023/03/02 07:05:55;;;;;;;120.50;58.10;;;;;;;-1.56;79.52;100708.28;220223;1256;140258;-64
2023/03/02 07:10:58;;;;;;;138.20;62.90;;;;;;;-1.41;79.46;100706.89;219328;1256;140458;-64
2023/03/02 07:16:04;;;;;;;140.50;67.80;;;;;;;-1.27;79.46;100702.92;218949;1256;140793;-63
2023/03/02 07:21:07;;;;;;;133.40;66.80;;;;;;;-1.16;79.71;100700.49;218474;1256;150964;-64
2023/03/02 07:26:10;;;;;;;121.70;56.00;;;;;;;-1.06;80.10;100700.52;218844;1256;139871;-63
2023/03/02 07:31:14;;;;;;;128.70;56.20;;;;;;;-0.99;80.16;100702.17;217459;1255;142062;-63
2023/03/02 07:36:17;;;;;;;127.40;59.30;;;;;;;-0.86;79.97;100699.95;218443;1256;139742;-63
2023/03/02 07:41:21;;;;;;;120.50;60.70;;;;;;;-0.68;80.45;100692.04;218554;1260;140263;-64
2023/03/02 07:46:28;;;;;;;142.40;57.20;;;;;;;-0.53;80.05;100684.87;218694;1256;139664;-65
2023/03/02 07:51:31;;;;;;;115.50;52.80;;;;;;;-0.36;80.14;100678.62;217752;1257;248596;-64
2023/03/02 07:56:34;;;;;;;129.90;57.60;;;;;;;-0.12;80.45;100678.96;217791;1256;139844;-63
2023/03/02 08:01:38;;;;;;;116.70;57.20;;;;;;;0.18;80.08;100677.16;217505;1256;140232;-62
2023/03/02 08:06:41;;;;;;;107.20;55.50;;;;;;;0.47;80.13;100675.34;218185;1256;140017;-62
2023/03/02 08:11:46;;;;;;;99.80;49.20;;;;;;;0.58;79.56;100673.05;217986;1260;231186;-63
2023/03/02 08:16:51;;;;;;;108.20;52.20;;;;;;;0.67;79.42;100671.23;217941;1259;140071;-63
2023/03/02 08:21:55;;;;;;;120.70;56.60;;;;;;;0.86;79.39;100671.47;218676;1256;141831;-64
2023/03/02 08:27:03;;;;;;;108.50;56.90;;;;;;;1.08;79.05;100672.98;218878;1256;140576;-62
2023/03/02 08:32:06;;;;;;;114.00;55.20;;;;;;;1.25;78.98;100669.77;217944;1259;139553;-63
2023/03/02 08:37:10;;;;;;;114.60;54.20;;;;;;;1.45;79.02;100668.11;217905;1257;142088;-62
2023/03/02 08:42:13;;;;;;;102.00;48.70;;;;;;;1.65;78.77;100665.38;220349;1256;139561;-61
2023/03/02 08:47:17;;;;;;;113.10;53.20;;;;;;;1.99;78.48;100665.41;219413;1257;139384;-61
2023/03/02 08:52:20;;;;;;;108.90;50.60;;;;;;;2.33;78.14;100660.45;218847;1260;140014;-61
2023/03/02 08:57:22;;;;;;;109.70;57.30;;;;;;;2.53;77.58;100651.09;219599;1256;140361;-64
2023/03/02 09:02:26;;;;;;;112.90;54.60;;;;;;;2.80;77.70;100643.96;220331;1256;140447;-67
2023/03/02 09:07:30;;;;;;;83.80;48.20;;;;;;;3.03;77.34;100640.98;219027;1256;140815;-66
2023/03/02 09:12:35;;;;;;;112.20;53.80;;;;;;;3.17;76.90;100639.33;217937;1257;139589;-64
2023/03/02 09:17:39;;;;;;;108.80;56.50;;;;;;;3.33;76.72;100638.45;219082;1256;140650;-65
2023/03/02 09:22:47;;;;;;;109.30;58.30;;;;;;;3.53;76.54;100634.15;219533;1256;139988;-62
2023/03/02 09:27:51;;;;;;;109.70;58.20;;;;;;;3.77;76.65;100635.87;217958;1256;139586;-66
2023/03/02 09:32:56;;;;;;;92.10;47.50;;;;;;;4.01;76.48;100635.63;218292;1256;139944;-64
2023/03/02 09:38:00;;;;;;;92.80;49.20;;;;;;;4.25;75.81;100634.63;217700;1257;139704;-67
2023/03/02 09:43:24;;;;;;;89.10;45.70;;;;;;;4.40;75.35;100630.23;218805;1258;139441;-64
2023/03/02 09:48:37;;;;;;;107.50;54.20;;;;;;;4.50;75.45;100635.86;217497;1256;141838;-63
2023/03/02 09:53:51;;;;;;;92.20;51.40;;;;;;;4.62;75.45;100634.25;219001;1255;141249;-71
2023/03/02 09:59:31;;;;;;;97.60;52.70;;;;;;;4.64;74.70;100636.26;217315;1256;140042;-69
2023/03/02 10:04:43;;;;;;;94.00;52.00;;;;;;;4.61;73.99;100638.30;218378;1256;140363;-64
2023/03/02 10:09:46;;;;;;;95.40;52.40;;;;;;;4.66;74.25;100628.90;217415;1256;139668;-65
2023/03/02 10:15:07;;;;;;;96.90;50.10;;;;;;;4.96;74.42;100627.50;218294;1256;141533;-64
2023/03/02 10:20:20;;;;;;;82.20;45.80;;;;;;;5.23;74.51;100628.64;217638;1257;139713;-65
2023/03/02 10:25:35;;;;;;;77.70;40.00;;;;;;;5.35;73.76;100630.02;218011;1257;140941;-67
2023/03/02 10:30:39;;;;;;;99.00;50.00;;;;;;;5.52;73.41;100629.11;217819;1257;139224;-66
2023/03/02 10:35:46;;;;;;;88.10;44.70;;;;;;;5.66;73.28;100623.84;219254;1256;140051;-70
2023/03/02 10:40:58;;;;;;;91.40;49.40;;;;;;;5.78;73.00;100617.25;217617;1256;139983;-66
2023/03/02 10:46:04;;;;;;;90.90;48.00;;;;;;;5.87;72.99;100613.81;220307;1256;140951;-67
2023/03/02 10:51:29;;;;;;;97.10;50.30;;;;;;;5.84;72.48;100609.98;220319;1256;140421;-71
2023/03/02 10:56:32;;;;;;;100.50;53.80;;;;;;;5.81;72.28;100606.14;220368;1256;139929;-68
2023/03/02 11:01:36;;;;;;;105.70;50.70;;;;;;;5.86;72.80;100603.15;220487;1256;140481;-65
2023/03/02 11:06:40;;;;;;;86.70;49.00;;;;;;;5.78;72.42;100608.42;219477;1256;142957;-65
2023/03/02 11:11:52;;;;;;;94.60;48.90;;;;;;;5.73;72.42;100610.02;218274;1256;139614;-66
2023/03/02 11:16:56;;;;;;;106.90;53.70;;;;;;;5.73;72.04;100602.39;218699;1256;139781;-64
2023/03/02 11:22:15;;;;;;;92.30;50.50;;;;;;;5.71;72.03;100595.56;218522;1259;139970;-62
2023/03/02 11:27:26;;;;;;;106.60;54.80;;;;;;;5.74;71.89;100584.81;217860;1257;139983;-64
2023/03/02 11:32:44;;;;;;;95.30;50.40;;;;;;;5.70;71.70;100579.34;218606;1257;139978;-66
2023/03/02 11:37:54;;;;;;;94.40;49.00;;;;;;;5.66;71.36;100571.70;218575;1256;141429;-65
2023/03/02 11:43:00;;;;;;;78.60;41.60;;;;;;;5.66;71.80;100563.08;218114;1259;140184;-66
2023/03/02 11:48:23;;;;;;;103.60;52.00;;;;;;;5.67;71.46;100566.14;217661;1256;140257;-66
2023/03/02 11:53:38;;;;;;;103.60;53.00;;;;;;;5.74;71.46;100565.96;217931;1257;141268;-69
2023/03/02 11:58:42;;;;;;;107.20;51.20;;;;;;;5.76;71.42;100568.89;217784;1260;139878;-69
2023/03/02 12:03:46;;;;;;;100.90;51.50;;;;;;;5.64;71.56;100561.70;217553;1256;139727;-68
2023/03/02 12:08:54;;;;;;;96.70;49.80;;;;;;;5.66;71.51;100559.16;217289;1260;140922;-68
2023/03/02 12:14:00;;;;;;;100.10;50.40;;;;;;;5.67;71.39;100562.37;217387;1256;139761;-66
2023/03/02 12:19:27;;;;;;;104.70;48.80;;;;;;;5.69;71.19;100557.39;217410;1256;140128;-67
2023/03/02 12:24:36;;;;;;;113.90;52.60;;;;;;;5.72;71.10;100552.42;218244;1257;140637;-68
2023/03/02 12:29:45;;;;;;;112.70;50.90;;;;;;;5.79;71.58;100546.85;219200;1256;141444;-65
2023/03/02 12:34:55;;;;;;;;;;;;;;;5.85;71.31;100544.19;219180;1256;139603;-66
2023/03/02 12:40:36;;;;;;;92.90;49.40;;;;;;;5.88;71.44;100533.81;217919;1256;125634;-67
2023/03/02 12:46:04;;;;;;;100.30;51.60;;;;;;;5.94;71.25;100528.02;220047;1260;139594;-69
2023/03/02 12:51:23;;;;;;;103.60;56.30;;;;;;;5.90;70.63;100521.77;220252;1256;140341;-72
2023/03/02 12:56:28;;;;;;;101.00;55.50;;;;;;;5.90;70.91;100521.80;220209;1256;141481;-71
2023/03/02 13:01:36;;;;;;;;;;;;;;;5.99;71.17;100516.73;220514;1256;139800;-70
2023/03/02 13:06:40;;;;;;;101.90;49.30;;;;;;;5.97;71.11;100509.38;220753;1256;126515;-68
2023/03/02 13:11:43;;;;;;;103.70;54.20;;;;;;;5.91;70.86;100508.39;219640;1260;141542;-68
2023/03/02 13:17:02;;;;;;;98.60;49.20;;;;;;;5.80;70.47;100507.45;217951;1260;141731;-72
2023/03/02 13:22:09;;;;;;;104.60;51.20;;;;;;;5.76;70.68;100502.49;217832;1260;140553;-70
2023/03/02 13:27:20;;;;;;;100.10;53.70;;;;;;;5.69;70.63;100500.02;217716;1257;141218;-70
2023/03/02 13:32:39;;;;;;;99.60;51.10;;;;;;;5.59;70.99;100494.34;219437;1257;141412;-69
2023/03/02 13:37:44;;;;;;;109.60;56.30;;;;;;;5.61;71.22;100496.51;217489;1256;139281;-70
2023/03/02 13:42:48;;;;;;;95.10;50.30;;;;;;;5.66;71.36;100483.85;218053;1257;140522;-71
2023/03/02 13:47:54;;;;;;;106.70;49.70;;;;;;;5.67;71.23;100478.98;217310;1256;139808;-70
2023/03/02 13:53:04;;;;;;;90.70;47.30;;;;;;;5.51;70.82;100471.23;217575;1259;141018;-68
2023/03/02 13:58:15;;;;;;;86.90;49.20;;;;;;;5.36;70.89;100471.63;217353;1256;140034;-68
2023/03/02 14:03:30;;;;;;;85.40;41.60;;;;;;;5.24;71.43;100470.19;217752;1260;140406;-67
2023/03/02 14:08:33;;;;;;;60.40;31.00;;;;;;;5.10;71.58;100458.13;217526;1259;161614;-65
2023/03/02 14:13:42;;;;;;;52.90;29.10;;;;;;;4.92;71.38;100455.66;218019;1257;139388;-68
2023/03/02 14:18:51;;;;;;;84.00;39.80;;;;;;;4.74;71.49;100447.23;217820;1256;139447;-67
2023/03/02 14:23:57;;;;;;;65.00;31.80;;;;;;;4.72;71.52;100444.21;218499;1257;140778;-66
2023/03/02 14:29:13;;;;;;;63.20;34.10;;;;;;;4.67;71.53;100433.86;218595;1259;141179;-66
2023/03/02 14:34:17;;;;;;;63.70;33.10;;;;;;;4.56;71.74;100435.48;218214;1257;139715;-65
2023/03/02 14:39:38;;;;;;;67.00;35.40;;;;;;;4.39;71.81;100429.78;217633;1256;139496;-66
2023/03/02 14:44:43;;;;;;;43.00;24.70;;;;;;;4.31;71.94;100425.67;220445;1257;141101;-66
2023/03/02 14:49:48;;;;;;;48.20;26.30;;;;;;;4.26;71.94;100415.29;220482;1256;139969;-67
2023/03/02 14:54:54;;;;;;;49.00;27.40;;;;;;;4.24;71.82;100412.62;218337;1257;140215;-67
2023/03/02 14:59:58;;;;;;;64.00;31.30;;;;;;;4.16;72.02;100404.67;220305;1259;140056;-68
2023/03/02 15:05:03;;;;;;;53.80;28.90;;;;;;;4.10;72.30;100401.11;220293;1256;140183;-67
2023/03/02 15:10:11;;;;;;;54.50;31.20;;;;;;;4.09;72.46;100398.55;219718;1259;140151;-66
2023/03/02 15:15:17;;;;;;;59.50;31.70;;;;;;;4.04;72.27;100389.08;218101;1257;140029;-68
2023/03/02 15:20:21;;;;;;;60.70;30.10;;;;;;;3.96;72.59;100389.20;217823;1260;139961;-67
2023/03/02 15:25:25;;;;;;;67.40;36.40;;;;;;;3.88;72.41;100392.77;218136;1261;140785;-66
2023/03/02 15:30:29;;;;;;;60.80;32.20;;;;;;;3.78;72.39;100391.70;217613;1256;140546;-66
2023/03/02 15:35:31;;;;;;;65.00;35.00;;;;;;;3.64;72.67;100391.20;218669;1257;139937;-64
2023/03/02 15:40:35;;;;;;;57.60;29.90;;;;;;;3.56;73.03;100387.59;218113;1261;140388;-65
2023/03/02 15:45:43;;;;;;;50.00;26.30;;;;;;;3.46;72.83;100387.31;218453;1256;141932;-67
2023/03/02 15:50:57;;;;;;;59.30;32.30;;;;;;;3.36;73.02;100391.21;217276;1261;139315;-64
2023/03/02 15:56:02;;;;;;;54.90;28.90;;;;;;;3.32;72.98;100387.69;217532;1257;140719;-63
2023/03/02 16:01:08;;;;;;;63.90;29.60;;;;;;;3.27;73.07;100387.24;218517;1260;139750;-65
2023/03/02 16:06:12;;;;;;;68.10;32.50;;;;;;;3.24;73.27;100388.91;217911;1260;140007;-67
2023/03/02 16:11:21;;;;;;;68.20;35.30;;;;;;;3.22;73.34;100389.14;217877;1256;139855;-66
2023/03/02 16:16:26;;;;;;;72.80;34.90;;;;;;;3.11;73.59;100385.83;216543;1257;769113;-65
2023/03/02 16:21:30;;;;;;;65.50;31.40;;;;;;;3.02;73.81;100384.75;218645;1256;140466;-64
2023/03/02 16:26:37;;;;;;;61.30;32.60;;;;;;;2.97;73.83;100387.27;217441;1257;139286;-64
2023/03/02 16:31:45;;;;;;;60.10;32.50;;;;;;;2.88;73.70;100390.31;219504;1257;141905;-65
2023/03/02 16:36:48;;;;;;;66.30;34.20;;;;;;;2.86;73.84;100395.52;217595;1257;140037;-64
2023/03/02 16:41:51;;;;;;;61.60;31.60;;;;;;;2.82;74.20;100398.35;218644;1257;140878;-66
2023/03/02 16:46:53;;;;;;;53.40;26.10;;;;;;;2.77;74.20;100397.02;218321;1259;140718;-63
2023/03/02 16:51:58;;;;;;;37.80;21.40;;;;;;;2.67;73.91;100399.19;217876;1256;139627;-67
2023/03/02 16:57:02;;;;;;;54.10;25.30;;;;;;;2.56;73.77;100401.44;220080;1257;141428;-65
2023/03/02 17:02:06;;;;;;;39.40;20.90;;;;;;;2.54;73.91;100398.44;219383;1256;141027;-63
2023/03/02 17:07:08;;;;;;;45.80;23.30;;;;;;;2.57;73.99;100401.80;219419;1256;141253;-64
2023/03/02 17:12:11;;;;;;;39.60;20.90;;;;;;;2.55;73.71;100404.55;217655;1260;139880;-63
2023/03/02 17:17:13;;;;;;;44.80;22.30;;;;;;;2.47;74.01;100406.23;219359;1256;140608;-65
2023/03/02 17:22:16;;;;;;;52.30;23.60;;;;;;;2.42;74.04;100400.27;217681;1260;139760;-64
2023/03/02 17:27:19;;;;;;;50.30;23.70;;;;;;;2.40;74.12;100408.23;217169;1256;140064;-68
2023/03/02 17:32:27;;;;;;;50.80;21.10;;;;;;;2.37;74.22;100407.15;217616;1257;140126;-63
2023/03/02 17:37:29;;;;;;;51.40;23.30;;;;;;;2.36;74.09;100404.45;218735;1256;140983;-64
2023/03/02 17:42:32;;;;;;;43.20;22.50;;;;;;;2.41;74.08;100402.55;218304;1257;140869;-63
2023/03/02 17:47:34;;;;;;;41.10;20.70;;;;;;;2.41;74.17;100402.84;218162;1256;139236;-64
2023/03/02 17:52:37;;;;;;;41.60;22.50;;;;;;;2.40;74.26;100405.27;219395;1256;139875;-65
2023/03/02 17:57:40;;;;;;;36.40;19.20;;;;;;;2.36;74.45;100408.52;217566;1257;139393;-67
2023/03/02 18:02:43;;;;;;;40.70;20.30;;;;;;;2.31;74.11;100398.86;219157;1257;140835;-66
2023/03/02 18:07:45;;;;;;;42.30;19.00;;;;;;;2.29;74.58;100396.20;217643;1259;139313;-64
2023/03/02 18:12:49;;;;;;;42.00;21.80;;;;;;;2.34;74.54;100390.97;217554;1259;140027;-64
2023/03/02 18:17:55;;;;;;;46.40;20.90;;;;;;;2.34;74.34;100392.34;219232;1257;141943;-63
2023/03/02 18:22:59;;;;;;;40.00;20.50;;;;;;;2.31;74.61;100393.17;217509;1259;140109;-64
2023/03/02 18:28:03;;;;;;;52.20;26.10;;;;;;;2.31;74.55;100391.66;218759;1256;140958;-65
2023/03/02 18:33:08;;;;;;;56.00;25.10;;;;;;;2.27;74.38;100388.77;218013;1257;139278;-65
2023/03/02 18:38:11;;;;;;;49.50;21.90;;;;;;;2.24;74.25;100389.09;217824;1259;139804;-64
2023/03/02 18:43:16;;;;;;;46.40;23.90;;;;;;;2.20;74.01;100381.29;219447;1260;141451;-66
2023/03/02 18:48:19;;;;;;;45.30;24.10;;;;;;;2.17;73.89;100386.16;217758;1261;140756;-65
2023/03/02 18:53:22;;;;;;;40.50;21.30;;;;;;;2.18;74.57;100389.95;217536;1259;140698;-64
2023/03/02 18:58:26;;;;;;;45.80;22.30;;;;;;;2.15;74.45;100387.94;220145;1257;140086;-66
2023/03/02 19:03:29;;;;;;;47.80;26.10;;;;;;;2.07;74.58;100390.75;220310;1258;141624;-67
2023/03/02 19:08:36;;;;;;;45.60;24.80;;;;;;;1.99;74.49;100389.13;220407;1260;140036;-66
2023/03/02 19:13:38;;;;;;;51.00;23.10;;;;;;;1.95;74.65;100389.58;220108;1260;140437;-67
2023/03/02 19:18:42;;;;;;;51.40;22.70;;;;;;;1.87;74.45;100380.79;219263;1257;139556;-64
2023/03/02 19:23:46;;;;;;;54.80;26.60;;;;;;;1.80;74.05;100380.23;218147;1260;140254;-65
2023/03/02 19:28:50;;;;;;;44.30;23.80;;;;;;;1.60;73.73;100373.46;218175;1257;141629;-64
2023/03/02 19:33:55;;;;;;;45.00;23.80;;;;;;;1.41;73.91;100374.50;218139;1260;140392;-65
2023/03/02 19:39:01;;;;;;;40.70;22.70;;;;;;;1.23;74.11;100371.80;218995;1260;139560;-62
2023/03/02 19:44:06;;;;;;;45.60;23.30;;;;;;;1.04;73.82;100370.84;218340;1261;139790;-64
2023/03/02 19:49:10;;;;;;;52.10;25.00;;;;;;;0.87;74.24;100367.14;218034;1262;140123;-63
2023/03/02 19:54:13;;;;;;;48.80;24.10;;;;;;;0.79;74.23;100361.33;217566;1258;140386;-62
2023/03/02 19:59:16;;;;;;;60.20;28.80;;;;;;;0.69;74.46;100364.45;217851;1260;139561;-61
2023/03/02 20:04:19;;;;;;;67.50;35.40;;;;;;;0.51;74.40;100363.17;217498;1260;140198;-64
2023/03/02 20:09:26;;;;;;;58.80;31.90;;;;;;;0.34;75.09;100363.87;217924;1260;139936;-62
2023/03/02 20:14:34;;;;;;;49.60;26.30;;;;;;;0.25;75.40;100361.55;217381;1258;139112;-62
2023/03/02 20:19:37;;;;;;;62.10;31.20;;;;;;;0.11;75.11;100367.11;218029;1258;139591;-63
2023/03/02 20:24:42;;;;;;;66.60;30.90;;;;;;;0.10;75.59;100363.89;217927;1257;140271;-63
2023/03/02 20:29:45;;;;;;;73.50;32.70;;;;;;;0.03;75.63;100357.80;218912;1257;139931;-63
2023/03/02 20:34:49;;;;;;;66.50;31.20;;;;;;;0.05;76.49;100358.36;217633;1257;139741;-63
2023/03/02 20:39:52;;;;;;;75.70;35.90;;;;;;;0.04;76.36;100354.72;218541;1257;139366;-62
2023/03/02 20:44:56;;;;;;;121.90;54.40;;;;;;;-0.03;76.14;100353.48;217580;1260;140760;-64
2023/03/02 20:50:00;;;;;;;69.40;28.90;;;;;;;-0.10;76.15;100350.30;219425;1257;141371;-63
2023/03/02 20:55:04;;;;;;;59.60;30.20;;;;;;;-0.12;76.32;100349.82;219413;1257;140689;-65
2023/03/02 21:00:10;;;;;;;73.50;36.60;;;;;;;-0.11;76.66;100343.27;220160;1256;140968;-65
2023/03/02 21:05:15;;;;;;;61.60;31.90;;;;;;;-0.15;76.71;100343.02;220018;1260;140230;-65
2023/03/02 21:10:31;;;;;;;67.90;30.10;;;;;;;-0.14;76.52;100337.42;217510;1257;140880;-66
2023/03/02 21:15:35;;;;;;;69.90;32.90;;;;;;;-0.14;76.68;100327.80;220204;1257;140153;-68
2023/03/02 21:20:38;;;;;;;61.90;28.20;;;;;;;-0.09;76.80;100328.73;218851;1260;140956;-66
2023/03/02 21:25:43;;;;;;;61.00;31.60;;;;;;;-0.06;77.18;100328.16;219113;1260;140671;-65
2023/03/02 21:30:47;;;;;;;53.20;26.90;;;;;;;-0.08;77.07;100325.85;217956;1257;139720;-67
2023/03/02 21:35:50;;;;;;;63.50;30.00;;;;;;;-0.10;77.04;100324.88;217615;1256;139705;-63
2023/03/02 21:40:56;;;;;;;57.50;28.50;;;;;;;-0.08;77.63;100329.19;218045;1257;140435;-65
2023/03/02 21:46:00;;;;;;;85.60;34.40;;;;;;;-0.04;77.53;100328.41;218293;1257;139706;-63
2023/03/02 21:51:03;;;;;;;59.40;32.30;;;;;;;0.03;77.54;100323.00;217660;1257;140223;-64
2023/03/02 21:56:08;;;;;;;75.80;36.40;;;;;;;0.05;77.33;100319.64;217459;1257;139272;-65
2023/03/02 22:01:12;;;;;;;57.40;30.80;;;;;;;0.06;77.90;100320.49;217959;1258;139861;-62
2023/03/02 22:06:21;;;;;;;67.70;32.40;;;;;;;0.07;78.00;100321.52;217780;1257;140384;-62
2023/03/02 22:11:27;;;;;;;57.00;28.10;;;;;;;0.10;77.73;100315.29;217795;1257;139680;-64
2023/03/02 22:16:39;;;;;;;53.90;28.90;;;;;;;0.18;78.31;100316.60;218189;1257;139566;-62
2023/03/02 22:21:47;;;;;;;56.80;26.80;;;;;;;0.28;78.43;100316.31;218694;1257;140329;-65
2023/03/02 22:27:07;;;;;;;52.50;25.90;;;;;;;0.26;78.14;100323.61;218300;1260;140257;-62
2023/03/02 22:32:17;;;;;;;55.40;25.20;;;;;;;0.25;78.26;100316.59;217660;1260;139466;-64
2023/03/02 22:37:23;;;;;;;56.10;27.30;;;;;;;0.27;78.18;100301.52;217967;1258;140427;-67
2023/03/02 22:42:29;;;;;;;64.50;31.20;;;;;;;0.31;78.25;100302.52;220088;1256;139995;-66
2023/03/02 22:47:34;;;;;;;70.80;31.30;;;;;;;0.35;78.60;100294.96;220370;1257;139769;-65